sensor_id;sensor_type;location;lat;lon;timestamp;temperature;humidity
16273;DHT22;8244;50.044;9.006;2022-08-19T00:04:20;21.50;99.90
16273;DHT22;8244;50.044;9.006;2022-08-19T00:09:23;21.50;99.90
16273;DHT22;8244;50.044;9.006;2022-08-19T00:14:28;21.50;99.90
16273;DHT22;8244;50.044;9.006;2022-08-19T00:19:31;21.50;99.90
16273;DHT22;8244;50.044;9.006;2022-08-19T00:24:34;21.50;99.90
16273;DHT22;8244;50.044;9.006;2022-08-19T00:29:38;21.50;99.90
16273;DHT22;8244;50.044;9.006;2022-08-19T00:34:40;21.50;99.90
16273;DHT22;8244;50.044;9.006;2022-08-19T00:39:41;21.50;99.90
16273;DHT22;8244;50.044;9.006;2022-08-19T00:44:46;21.40;99.90
16273;DHT22;8244;50.044;9.006;2022-08-19T00:49:50;21.50;99.90
16273;DHT22;8244;50.044;9.006;2022-08-19T00:55:04;21.40;99.90
16273;DHT22;8244;50.044;9.006;2022-08-19T01:00:12;21.40;99.90
16273;DHT22;8244;50.044;9.006;2022-08-19T01:05:17;21.40;99.90
16273;DHT22;8244;50.044;9.006;2022-08-19T01:10:24;21.30;99.90
16273;DHT22;8244;50.044;9.006;2022-08-19T01:15:31;21.30;99.90
16273;DHT22;8244;50.044;9.006;2022-08-19T01:20:33;21.30;99.90
16273;DHT22;8244;50.044;9.006;2022-08-19T01:25:42;21.30;99.90
16273;DHT22;8244;50.044;9.006;2022-08-19T01:30:45;21.30;99.90
16273;DHT22;8244;50.044;9.006;2022-08-19T01:35:49;21.30;99.90
16273;DHT22;8244;50.044;9.006;2022-08-19T01:40:54;21.30;99.90
16273;DHT22;8244;50.044;9.006;2022-08-19T01:45:57;21.30;99.90
16273;DHT22;8244;50.044;9.006;2022-08-19T01:50:58;21.20;99.90
16273;DHT22;8244;50.044;9.006;2022-08-19T01:56:03;21.20;99.90
16273;DHT22;8244;50.044;9.006;2022-08-19T02:01:06;21.20;99.90
16273;DHT22;8244;50.044;9.006;2022-08-19T02:06:08;21.20;99.90
16273;DHT22;8244;50.044;9.006;2022-08-19T02:11:19;21.20;99.90
16273;DHT22;8244;50.044;9.006;2022-08-19T02:16:22;21.20;99.90
16273;DHT22;8244;50.044;9.006;2022-08-19T02:21:24;21.20;99.90
16273;DHT22;8244;50.044;9.006;2022-08-19T02:26:27;21.20;99.90
16273;DHT22;8244;50.044;9.006;2022-08-19T02:31:29;21.20;99.90
16273;DHT22;8244;50.044;9.006;2022-08-19T02:36:31;21.20;99.90
16273;DHT22;8244;50.044;9.006;2022-08-19T02:41:34;21.20;99.90
16273;DHT22;8244;50.044;9.006;2022-08-19T02:46:36;21.20;99.90
16273;DHT22;8244;50.044;9.006;2022-08-19T02:51:40;21.20;99.90
16273;DHT22;8244;50.044;9.006;2022-08-19T02:56:44;21.20;99.90
16273;DHT22;8244;50.044;9.006;2022-08-19T03:01:46;21.20;99.90
16273;DHT22;8244;50.044;9.006;2022-08-19T03:06:49;21.20;99.90
16273;DHT22;8244;50.044;9.006;2022-08-19T03:11:52;21.10;99.90
16273;DHT22;8244;50.044;9.006;2022-08-19T03:16:54;21.10;99.90
16273;DHT22;8244;50.044;9.006;2022-08-19T03:21:56;21.10;99.90
16273;DHT22;8244;50.044;9.006;2022-08-19T03:26:59;21.10;99.90
16273;DHT22;8244;50.044;9.006;2022-08-19T03:32:03;21.10;99.90
16273;DHT22;8244;50.044;9.006;2022-08-19T03:37:07;21.00;99.90
16273;DHT22;8244;50.044;9.006;2022-08-19T03:42:11;20.90;99.90
16273;DHT22;8244;50.044;9.006;2022-08-19T03:47:13;20.80;99.90
16273;DHT22;8244;50.044;9.006;2022-08-19T03:52:16;20.80;99.90
16273;DHT22;8244;50.044;9.006;2022-08-19T03:57:19;20.70;99.90
16273;DHT22;8244;50.044;9.006;2022-08-19T04:02:21;20.60;99.90
16273;DHT22;8244;50.044;9.006;2022-08-19T04:07:23;20.50;99.90
16273;DHT22;8244;50.044;9.006;2022-08-19T04:12:26;20.50;99.90
16273;DHT22;8244;50.044;9.006;2022-08-19T04:17:28;20.40;99.90
16273;DHT22;8244;50.044;9.006;2022-08-19T04:22:30;20.40;99.90
16273;DHT22;8244;50.044;9.006;2022-08-19T04:27:33;20.30;99.90
16273;DHT22;8244;50.044;9.006;2022-08-19T04:32:35;20.30;99.90
16273;DHT22;8244;50.044;9.006;2022-08-19T04:37:38;20.30;99.90
16273;DHT22;8244;50.044;9.006;2022-08-19T04:42:41;20.30;99.90
16273;DHT22;8244;50.044;9.006;2022-08-19T04:47:43;20.30;99.90
16273;DHT22;8244;50.044;9.006;2022-08-19T04:52:45;20.20;99.90
16273;DHT22;8244;50.044;9.006;2022-08-19T04:57:48;20.20;99.90
16273;DHT22;8244;50.044;9.006;2022-08-19T05:02:51;20.20;99.90
16273;DHT22;8244;50.044;9.006;2022-08-19T05:07:53;20.20;99.90
16273;DHT22;8244;50.044;9.006;2022-08-19T05:12:57;20.30;99.90
16273;DHT22;8244;50.044;9.006;2022-08-19T05:17:59;20.30;99.90
16273;DHT22;8244;50.044;9.006;2022-08-19T05:23:18;20.40;99.90
16273;DHT22;8244;50.044;9.006;2022-08-19T05:28:21;20.40;99.90
16273;DHT22;8244;50.044;9.006;2022-08-19T05:33:25;20.40;99.90
16273;DHT22;8244;50.044;9.006;2022-08-19T05:38:28;20.50;99.90
16273;DHT22;8244;50.044;9.006;2022-08-19T05:43:31;20.40;99.90
16273;DHT22;8244;50.044;9.006;2022-08-19T05:48:33;20.50;99.90
16273;DHT22;8244;50.044;9.006;2022-08-19T05:53:35;20.60;99.90
16273;DHT22;8244;50.044;9.006;2022-08-19T05:58:39;20.70;99.90
16273;DHT22;8244;50.044;9.006;2022-08-19T06:03:42;20.90;99.90
16273;DHT22;8244;50.044;9.006;2022-08-19T06:08:44;21.00;99.90
16273;DHT22;8244;50.044;9.006;2022-08-19T06:13:53;21.10;99.90
16273;DHT22;8244;50.044;9.006;2022-08-19T06:18:58;21.20;99.90
16273;DHT22;8244;50.044;9.006;2022-08-19T06:24:00;21.20;99.90
16273;DHT22;8244;50.044;9.006;2022-08-19T06:29:05;21.30;99.90
16273;DHT22;8244;50.044;9.006;2022-08-19T06:34:08;21.40;99.90
16273;DHT22;8244;50.044;9.006;2022-08-19T06:39:13;21.50;99.90
16273;DHT22;8244;50.044;9.006;2022-08-19T06:44:17;21.60;99.90
16273;DHT22;8244;50.044;9.006;2022-08-19T06:49:19;21.70;99.90
16273;DHT22;8244;50.044;9.006;2022-08-19T06:54:21;21.90;99.90
16273;DHT22;8244;50.044;9.006;2022-08-19T06:59:25;22.00;99.90
16273;DHT22;8244;50.044;9.006;2022-08-19T07:04:29;22.10;99.90
16273;DHT22;8244;50.044;9.006;2022-08-19T07:09:32;22.20;99.90
16273;DHT22;8244;50.044;9.006;2022-08-19T07:14:47;22.30;99.90
16273;DHT22;8244;50.044;9.006;2022-08-19T07:19:49;22.40;99.90
16273;DHT22;8244;50.044;9.006;2022-08-19T07:24:51;22.60;99.90
16273;DHT22;8244;50.044;9.006;2022-08-19T07:29:55;22.90;99.90
16273;DHT22;8244;50.044;9.006;2022-08-19T07:34:56;23.20;99.90
16273;DHT22;8244;50.044;9.006;2022-08-19T07:40:00;23.40;99.90
16273;DHT22;8244;50.044;9.006;2022-08-19T07:45:05;23.60;99.90
16273;DHT22;8244;50.044;9.006;2022-08-19T07:50:10;23.70;99.90
16273;DHT22;8244;50.044;9.006;2022-08-19T07:55:14;23.90;99.90
16273;DHT22;8244;50.044;9.006;2022-08-19T08:00:17;24.00;99.90
16273;DHT22;8244;50.044;9.006;2022-08-19T08:05:19;24.20;99.90
16273;DHT22;8244;50.044;9.006;2022-08-19T08:10:43;24.40;99.90
16273;DHT22;8244;50.044;9.006;2022-08-19T08:15:46;24.60;99.90
16273;DHT22;8244;50.044;9.006;2022-08-19T08:20:48;24.70;99.90
16273;DHT22;8244;50.044;9.006;2022-08-19T08:25:53;24.70;99.90
16273;DHT22;8244;50.044;9.006;2022-08-19T08:30:57;24.70;99.90
16273;DHT22;8244;50.044;9.006;2022-08-19T08:36:01;24.80;99.90
16273;DHT22;8244;50.044;9.006;2022-08-19T08:41:09;24.80;99.90
16273;DHT22;8244;50.044;9.006;2022-08-19T08:46:18;24.90;99.90
16273;DHT22;8244;50.044;9.006;2022-08-19T08:51:25;24.90;99.90
16273;DHT22;8244;50.044;9.006;2022-08-19T08:56:28;25.10;99.90
16273;DHT22;8244;50.044;9.006;2022-08-19T09:01:32;25.30;99.90
16273;DHT22;8244;50.044;9.006;2022-08-19T09:06:39;25.60;99.90
16273;DHT22;8244;50.044;9.006;2022-08-19T09:11:56;26.00;99.90
16273;DHT22;8244;50.044;9.006;2022-08-19T09:17:03;27.00;99.90
16273;DHT22;8244;50.044;9.006;2022-08-19T09:22:09;28.00;97.10
16273;DHT22;8244;50.044;9.006;2022-08-19T09:27:11;28.60;95.50
16273;DHT22;8244;50.044;9.006;2022-08-19T09:32:15;29.10;93.10
16273;DHT22;8244;50.044;9.006;2022-08-19T09:37:17;30.10;91.60
16273;DHT22;8244;50.044;9.006;2022-08-19T09:42:19;30.90;88.50
16273;DHT22;8244;50.044;9.006;2022-08-19T09:47:22;31.20;85.20
16273;DHT22;8244;50.044;9.006;2022-08-19T09:52:24;31.50;82.30
16273;DHT22;8244;50.044;9.006;2022-08-19T09:57:26;31.80;83.20
16273;DHT22;8244;50.044;9.006;2022-08-19T10:02:29;32.20;79.10
16273;DHT22;8244;50.044;9.006;2022-08-19T10:07:31;32.40;78.80
16273;DHT22;8244;50.044;9.006;2022-08-19T10:12:32;32.30;77.90
16273;DHT22;8244;50.044;9.006;2022-08-19T10:17:36;32.40;76.30
16273;DHT22;8244;50.044;9.006;2022-08-19T10:22:37;32.70;74.20
16273;DHT22;8244;50.044;9.006;2022-08-19T10:27:39;33.10;74.10
16273;DHT22;8244;50.044;9.006;2022-08-19T10:32:42;33.70;71.60
16273;DHT22;8244;50.044;9.006;2022-08-19T10:37:46;33.70;70.60
16273;DHT22;8244;50.044;9.006;2022-08-19T10:42:48;33.90;72.10
16273;DHT22;8244;50.044;9.006;2022-08-19T10:47:52;34.70;71.60
16273;DHT22;8244;50.044;9.006;2022-08-19T10:52:54;35.40;68.30
16273;DHT22;8244;50.044;9.006;2022-08-19T10:57:56;35.40;68.30
16273;DHT22;8244;50.044;9.006;2022-08-19T11:02:59;35.70;66.10
16273;DHT22;8244;50.044;9.006;2022-08-19T11:08:01;36.20;67.60
16273;DHT22;8244;50.044;9.006;2022-08-19T11:13:02;36.40;63.90
16273;DHT22;8244;50.044;9.006;2022-08-19T11:18:05;36.30;64.40
16273;DHT22;8244;50.044;9.006;2022-08-19T11:23:08;36.40;62.90
16273;DHT22;8244;50.044;9.006;2022-08-19T11:28:11;36.70;63.00
16273;DHT22;8244;50.044;9.006;2022-08-19T11:33:14;36.60;62.00
16273;DHT22;8244;50.044;9.006;2022-08-19T11:38:15;36.50;62.40
16273;DHT22;8244;50.044;9.006;2022-08-19T11:43:18;36.80;61.00
16273;DHT22;8244;50.044;9.006;2022-08-19T11:48:22;36.90;60.00
16273;DHT22;8244;50.044;9.006;2022-08-19T11:53:24;36.20;59.60
16273;DHT22;8244;50.044;9.006;2022-08-19T11:58:26;35.90;61.10
16273;DHT22;8244;50.044;9.006;2022-08-19T12:03:35;36.00;60.70
16273;DHT22;8244;50.044;9.006;2022-08-19T12:08:37;36.60;58.80
16273;DHT22;8244;50.044;9.006;2022-08-19T12:13:39;37.00;59.20
16273;DHT22;8244;50.044;9.006;2022-08-19T12:18:43;37.60;57.60
16273;DHT22;8244;50.044;9.006;2022-08-19T12:23:47;37.20;57.30
16273;DHT22;8244;50.044;9.006;2022-08-19T12:28:50;37.20;56.80
16273;DHT22;8244;50.044;9.006;2022-08-19T12:33:53;37.30;57.80
16273;DHT22;8244;50.044;9.006;2022-08-19T12:38:55;37.70;56.20
16273;DHT22;8244;50.044;9.006;2022-08-19T12:43:58;37.30;55.40
16273;DHT22;8244;50.044;9.006;2022-08-19T12:49:02;36.80;57.30
16273;DHT22;8244;50.044;9.006;2022-08-19T12:54:04;36.50;58.70
16273;DHT22;8244;50.044;9.006;2022-08-19T12:59:06;36.80;56.80
16273;DHT22;8244;50.044;9.006;2022-08-19T13:04:10;36.40;55.60
16273;DHT22;8244;50.044;9.006;2022-08-19T13:09:12;36.10;55.40
16273;DHT22;8244;50.044;9.006;2022-08-19T13:14:14;36.20;55.50
16273;DHT22;8244;50.044;9.006;2022-08-19T13:19:17;36.20;55.50
16273;DHT22;8244;50.044;9.006;2022-08-19T13:24:21;36.20;55.40
16273;DHT22;8244;50.044;9.006;2022-08-19T13:29:23;36.10;56.10
16273;DHT22;8244;50.044;9.006;2022-08-19T13:34:43;35.80;56.90
16273;DHT22;8244;50.044;9.006;2022-08-19T13:39:46;35.70;55.80
16273;DHT22;8244;50.044;9.006;2022-08-19T13:44:48;35.50;55.90
16273;DHT22;8244;50.044;9.006;2022-08-19T13:49:52;35.20;56.60
16273;DHT22;8244;50.044;9.006;2022-08-19T13:54:56;35.00;56.40
16273;DHT22;8244;50.044;9.006;2022-08-19T13:59:58;34.90;59.70
16273;DHT22;8244;50.044;9.006;2022-08-19T14:05:03;34.90;58.80
16273;DHT22;8244;50.044;9.006;2022-08-19T14:10:07;34.60;58.30
16273;DHT22;8244;50.044;9.006;2022-08-19T14:15:11;34.30;59.30
16273;DHT22;8244;50.044;9.006;2022-08-19T14:20:15;34.10;59.60
16273;DHT22;8244;50.044;9.006;2022-08-19T14:25:21;33.70;59.40
16273;DHT22;8244;50.044;9.006;2022-08-19T14:30:25;33.60;59.70
16273;DHT22;8244;50.044;9.006;2022-08-19T14:35:31;33.40;59.50
16273;DHT22;8244;50.044;9.006;2022-08-19T14:40:34;33.10;59.30
16273;DHT22;8244;50.044;9.006;2022-08-19T14:45:38;33.00;60.80
16273;DHT22;8244;50.044;9.006;2022-08-19T14:50:41;32.90;59.90
16273;DHT22;8244;50.044;9.006;2022-08-19T14:55:44;32.60;60.90
16273;DHT22;8244;50.044;9.006;2022-08-19T15:00:46;32.50;60.80
16273;DHT22;8244;50.044;9.006;2022-08-19T15:05:49;32.30;61.30
16273;DHT22;8244;50.044;9.006;2022-08-19T15:10:51;32.50;60.00
16273;DHT22;8244;50.044;9.006;2022-08-19T15:15:53;32.70;58.90
16273;DHT22;8244;50.044;9.006;2022-08-19T15:20:57;32.80;58.80
16273;DHT22;8244;50.044;9.006;2022-08-19T15:25:59;32.80;59.80
16273;DHT22;8244;50.044;9.006;2022-08-19T15:31:01;32.80;59.40
16273;DHT22;8244;50.044;9.006;2022-08-19T15:36:11;32.80;60.40
16273;DHT22;8244;50.044;9.006;2022-08-19T15:41:17;32.60;59.30
16273;DHT22;8244;50.044;9.006;2022-08-19T15:46:27;32.40;59.80
16273;DHT22;8244;50.044;9.006;2022-08-19T15:51:32;32.30;59.70
16273;DHT22;8244;50.044;9.006;2022-08-19T15:56:36;32.10;60.00
16273;DHT22;8244;50.044;9.006;2022-08-19T16:02:01;32.10;59.90
16273;DHT22;8244;50.044;9.006;2022-08-19T16:07:21;31.80;59.90
16273;DHT22;8244;50.044;9.006;2022-08-19T16:12:23;31.60;60.40
16273;DHT22;8244;50.044;9.006;2022-08-19T16:17:29;31.50;61.10
16273;DHT22;8244;50.044;9.006;2022-08-19T16:22:33;31.40;61.80
16273;DHT22;8244;50.044;9.006;2022-08-19T16:27:35;31.30;61.20
16273;DHT22;8244;50.044;9.006;2022-08-19T16:32:41;31.10;61.60
16273;DHT22;8244;50.044;9.006;2022-08-19T16:37:45;30.80;61.70
16273;DHT22;8244;50.044;9.006;2022-08-19T16:42:46;30.60;62.30
16273;DHT22;8244;50.044;9.006;2022-08-19T16:47:49;30.50;63.30
16273;DHT22;8244;50.044;9.006;2022-08-19T16:52:52;30.20;63.30
16273;DHT22;8244;50.044;9.006;2022-08-19T16:57:53;30.10;64.40
16273;DHT22;8244;50.044;9.006;2022-08-19T17:02:55;30.10;64.20
16273;DHT22;8244;50.044;9.006;2022-08-19T17:07:58;30.00;64.30
16273;DHT22;8244;50.044;9.006;2022-08-19T17:13:00;29.80;65.90
16273;DHT22;8244;50.044;9.006;2022-08-19T17:18:04;29.70;65.60
16273;DHT22;8244;50.044;9.006;2022-08-19T17:23:09;29.60;66.60
16273;DHT22;8244;50.044;9.006;2022-08-19T17:28:14;29.50;65.80
16273;DHT22;8244;50.044;9.006;2022-08-19T17:33:18;29.40;67.00
16273;DHT22;8244;50.044;9.006;2022-08-19T17:38:21;29.30;67.60
16273;DHT22;8244;50.044;9.006;2022-08-19T17:43:23;29.30;69.60
16273;DHT22;8244;50.044;9.006;2022-08-19T17:48:25;29.20;70.60
16273;DHT22;8244;50.044;9.006;2022-08-19T17:53:28;29.20;71.60
16273;DHT22;8244;50.044;9.006;2022-08-19T17:58:30;29.10;71.50
16273;DHT22;8244;50.044;9.006;2022-08-19T18:03:35;29.00;74.40
16273;DHT22;8244;50.044;9.006;2022-08-19T18:08:38;28.90;72.40
16273;DHT22;8244;50.044;9.006;2022-08-19T18:13:40;28.70;72.60
16273;DHT22;8244;50.044;9.006;2022-08-19T18:18:42;28.60;74.70
16273;DHT22;8244;50.044;9.006;2022-08-19T18:23:45;28.40;74.00
16273;DHT22;8244;50.044;9.006;2022-08-19T18:28:47;28.30;75.80
16273;DHT22;8244;50.044;9.006;2022-08-19T18:33:51;28.10;76.70
16273;DHT22;8244;50.044;9.006;2022-08-19T18:38:54;27.80;75.70
16273;DHT22;8244;50.044;9.006;2022-08-19T18:44:13;27.60;77.30
16273;DHT22;8244;50.044;9.006;2022-08-19T18:49:33;27.40;77.50
16273;DHT22;8244;50.044;9.006;2022-08-19T18:54:36;27.10;76.70
16273;DHT22;8244;50.044;9.006;2022-08-19T18:59:38;26.90;78.70
16273;DHT22;8244;50.044;9.006;2022-08-19T19:04:41;26.70;79.30
16273;DHT22;8244;50.044;9.006;2022-08-19T19:09:44;26.40;81.20
16273;DHT22;8244;50.044;9.006;2022-08-19T19:14:46;26.30;81.00
16273;DHT22;8244;50.044;9.006;2022-08-19T19:19:48;26.00;80.60
16273;DHT22;8244;50.044;9.006;2022-08-19T19:24:52;25.80;81.60
16273;DHT22;8244;50.044;9.006;2022-08-19T19:29:54;25.60;81.60
16273;DHT22;8244;50.044;9.006;2022-08-19T19:34:56;25.50;85.20
16273;DHT22;8244;50.044;9.006;2022-08-19T19:40:00;25.30;84.10
16273;DHT22;8244;50.044;9.006;2022-08-19T19:45:03;25.10;85.20
16273;DHT22;8244;50.044;9.006;2022-08-19T19:50:05;24.90;86.10
16273;DHT22;8244;50.044;9.006;2022-08-19T19:55:09;24.80;86.40
16273;DHT22;8244;50.044;9.006;2022-08-19T20:00:16;24.60;86.10
16273;DHT22;8244;50.044;9.006;2022-08-19T20:05:28;24.40;84.50
16273;DHT22;8244;50.044;9.006;2022-08-19T20:10:33;24.40;83.70
16273;DHT22;8244;50.044;9.006;2022-08-19T20:15:36;24.30;84.70
16273;DHT22;8244;50.044;9.006;2022-08-19T20:20:37;24.30;83.60
16273;DHT22;8244;50.044;9.006;2022-08-19T20:25:41;24.30;83.20
16273;DHT22;8244;50.044;9.006;2022-08-19T20:30:43;24.30;83.20
16273;DHT22;8244;50.044;9.006;2022-08-19T20:35:45;24.20;83.50
16273;DHT22;8244;50.044;9.006;2022-08-19T20:40:48;24.20;83.20
16273;DHT22;8244;50.044;9.006;2022-08-19T20:45:50;24.10;83.10
16273;DHT22;8244;50.044;9.006;2022-08-19T20:50:52;24.10;83.00
16273;DHT22;8244;50.044;9.006;2022-08-19T20:55:58;24.10;82.80
16273;DHT22;8244;50.044;9.006;2022-08-19T21:01:01;24.10;82.80
16273;DHT22;8244;50.044;9.006;2022-08-19T21:06:03;24.10;83.20
16273;DHT22;8244;50.044;9.006;2022-08-19T21:11:08;24.10;83.60
16273;DHT22;8244;50.044;9.006;2022-08-19T21:16:10;24.00;83.10
16273;DHT22;8244;50.044;9.006;2022-08-19T21:21:12;24.00;83.30
16273;DHT22;8244;50.044;9.006;2022-08-19T21:26:15;23.90;84.50
16273;DHT22;8244;50.044;9.006;2022-08-19T21:31:18;23.90;84.30
16273;DHT22;8244;50.044;9.006;2022-08-19T21:36:20;23.80;84.80
16273;DHT22;8244;50.044;9.006;2022-08-19T21:41:23;23.70;85.70
16273;DHT22;8244;50.044;9.006;2022-08-19T21:46:25;23.60;85.20
16273;DHT22;8244;50.044;9.006;2022-08-19T21:51:27;23.50;85.30
16273;DHT22;8244;50.044;9.006;2022-08-19T21:56:31;23.40;85.90
16273;DHT22;8244;50.044;9.006;2022-08-19T22:01:33;23.30;85.80
16273;DHT22;8244;50.044;9.006;2022-08-19T22:06:35;23.20;86.60
16273;DHT22;8244;50.044;9.006;2022-08-19T22:11:38;23.10;87.30
16273;DHT22;8244;50.044;9.006;2022-08-19T22:16:40;23.00;87.40
16273;DHT22;8244;50.044;9.006;2022-08-19T22:21:42;22.90;87.80
16273;DHT22;8244;50.044;9.006;2022-08-19T22:26:45;22.70;88.60
16273;DHT22;8244;50.044;9.006;2022-08-19T22:31:47;22.60;89.10
16273;DHT22;8244;50.044;9.006;2022-08-19T22:36:49;22.40;89.80
16273;DHT22;8244;50.044;9.006;2022-08-19T22:41:52;22.30;90.30
16273;DHT22;8244;50.044;9.006;2022-08-19T22:46:54;22.10;90.40
16273;DHT22;8244;50.044;9.006;2022-08-19T22:51:56;22.00;91.00
16273;DHT22;8244;50.044;9.006;2022-08-19T22:57:20;21.80;91.20
16273;DHT22;8244;50.044;9.006;2022-08-19T23:02:24;21.70;91.50
16273;DHT22;8244;50.044;9.006;2022-08-19T23:07:26;21.50;92.10
16273;DHT22;8244;50.044;9.006;2022-08-19T23:12:32;21.30;92.10
16273;DHT22;8244;50.044;9.006;2022-08-19T23:17:34;21.30;92.60
16273;DHT22;8244;50.044;9.006;2022-08-19T23:22:36;21.20;93.00
16273;DHT22;8244;50.044;9.006;2022-08-19T23:27:40;21.10;93.10
16273;DHT22;8244;50.044;9.006;2022-08-19T23:33:00;21.00;93.40
16273;DHT22;8244;50.044;9.006;2022-08-19T23:38:08;20.90;94.20
16273;DHT22;8244;50.044;9.006;2022-08-19T23:43:12;20.80;94.90
16273;DHT22;8244;50.044;9.006;2022-08-19T23:48:15;20.60;95.60
16273;DHT22;8244;50.044;9.006;2022-08-19T23:53:18;20.50;95.80
16273;DHT22;8244;50.044;9.006;2022-08-19T23:58:22;20.40;95.60
